Terminal Aerodrome Forecast
Issued by NWS Mt. Holly, NJ

Home | Current Version | Previous Version | Text Only | Print | Product List | Glossary On
Versions: 1 2 3 4 5 6 7 8 9 10 11 12 13 14 15
371
FTUS41 KPHI 241140
TAFRDG
TAF
KRDG 241140Z 2412/2512 VRB03KT P6SM SCT250
     FM241600 26006KT P6SM SCT250
     FM250000 19004KT P6SM SCT250
     FM250300 VRB02KT P6SM BKN150
      TEMPO 2507/2510 SHRA BKN060
     FM251000 00000KT 4SM BR BKN150=

USA.gov is the U.S. government's official web portal to all federal, state and local government web resources and services.